• Join FlightAware (Why Join?)
  • Login
  • US Flag 
08:52AM EDT


 

Airport Tracker/Info


-or-


 

Live Flight TrackerFlight Track Log ✈ N5352D ✈ 07-Jul-2012 ✈ KAJG - KPNC

Flight Track Log - Related Links

Times and Time Zones

All times are in EDT time to prevent confusion due to time zone crossing. See the N5352D flight status page for this flight to view local times or setup timezone preferences in your user account.

Time Position Orientation Groundspeed Altitude Reporting Facility
EDT Latitude Longitude Course Direction KTS MPH feet Rate Location/Type
09:46AM 38.5708 -88.0150 261° West 113 130 4,800  Level Kansas City Center
09:51AM 38.5442 -88.2192 255° West 124 143 6,100 180 Climbing Kansas City Center
09:52AM 38.5342 -88.2678 267° West 130 150 6,100  Level Kansas City Center
09:53AM 38.5325 -88.3158 255° West 130 150 6,100  Level Kansas City Center
09:54AM 38.5225 -88.3644 262° West 135 155 6,100 60 Level Kansas City Center
09:55AM 38.5167 -88.4153 260° West 140 161 6,300 120 Climbing Kansas City Center
09:56AM 38.5106 -88.4583 261° West 140 161 6,400 60 Climbing Kansas City Center
09:57AM 38.5047 -88.5067 257° West 140 161 6,500  Climbing Kansas City Center
09:58AM 38.4967 -88.5525 264° West 140 161 6,500  Level Kansas City Center
09:59AM 38.4928 -88.6006 262° West 140 161 6,500  Level Kansas City Center
10:00AM 38.4869 -88.6514 257° West 145 167 6,500  Level Kansas City Center
10:01AM 38.4786 -88.6969 260° West 145 167 6,500  Level Kansas City Center
10:02AM 38.4708 -88.7508 260° West 145 167 6,500  Level Kansas City Center
10:03AM 38.4647 -88.7936 259° West 145 167 6,500  Level Kansas City Center
10:04AM 38.4567 -88.8472 263° West 145 167 6,500  Level Kansas City Center
10:05AM 38.4525 -88.8900 259° West 140 161 6,500  Level Kansas City Center
10:06AM 38.4444 -88.9436 260° West 145 167 6,500  Level Kansas City Center
10:07AM 38.4383 -88.9892 259° West 145 167 6,500  Level Kansas City Center
10:08AM 38.4303 -89.0428 260° West 145 167 6,500  Level Kansas City Center
10:09AM 38.4242 -89.0883 261° West 145 167 6,500  Level Kansas City Center
10:10AM 38.4181 -89.1392 256° West 145 167 6,500  Level Kansas City Center
10:11AM 38.4097 -89.1822 259° West 145 167 6,500  Level Kansas City Center
10:12AM 38.4014 -89.2358 263° West 145 167 6,500  Level Kansas City Center
10:13AM 38.3972 -89.2786 259° West 145 167 6,500  Level Kansas City Center
10:14AM 38.3892 -89.3322 259° West 140 161 6,500  Level Kansas City Center
10:15AM 38.3825 -89.3750 104° East 140 161 6,500 -120 Level Kansas City Center
10:15AM 38.3772 -89.3472 256° West 142 163 6,400 -120 Descending FAA TRACON SMA TRACON (SMA)
10:16AM 38.3714 -89.3778 261° West 141 162 6,400  Level FAA TRACON SMA TRACON (SMA)
10:17AM 38.3672 -89.4111 258° West 141 162 6,400  Level FAA TRACON SMA TRACON (SMA)
10:17AM 38.3617 -89.4453 260° West 141 162 6,400  Level FAA TRACON SMA TRACON (SMA)
10:18AM 38.3572 -89.4761 259° West 142 163 6,400  Level FAA TRACON SMA TRACON (SMA)
10:19AM 38.3522 -89.5097 258° West 142 163 6,400  Level FAA TRACON SMA TRACON (SMA)
10:19AM 38.3467 -89.5439 259° West 141 162 6,400  Level FAA TRACON SMA TRACON (SMA)
10:20AM 38.3419 -89.5736 260° West 140 161 6,400  Level FAA TRACON SMA TRACON (SMA)
10:21AM 38.3372 -89.6069 259° West 139 160 6,400  Level FAA TRACON SMA TRACON (SMA)
10:21AM 38.3319 -89.6417 260° West 143 165 6,400  Level FAA TRACON SMA TRACON (SMA)
10:22AM 38.3278 -89.6711 258° West 141 162 6,400  Level FAA TRACON SMA TRACON (SMA)
10:23AM 38.3222 -89.7056 260° West 143 165 6,400  Level FAA TRACON SMA TRACON (SMA)
10:23AM 38.3175 -89.7411 259° West 145 167 6,400 60 Level FAA TRACON SMA TRACON (SMA)
10:24AM 38.3128 -89.7722 258° West 148 170 6,500  Climbing FAA TRACON SMA TRACON (SMA)
10:25AM 38.3069 -89.8072 258° West 146 168 6,400 -120 Descending FAA TRACON SMA TRACON (SMA)
10:25AM 38.3008 -89.8431 259° West 148 170 6,400  Level FAA TRACON SMA TRACON (SMA)
10:26AM 38.2961 -89.8739 260° West 145 167 6,400  Level FAA TRACON SMA TRACON (SMA)
10:27AM 38.2911 -89.9086 259° West 143 165 6,400  Level FAA TRACON SMA TRACON (SMA)
10:27AM 38.2856 -89.9439 259° West 145 167 6,400  Level FAA TRACON SMA TRACON (SMA)
10:28AM 38.2806 -89.9758 259° West 146 168 6,400  Level FAA TRACON SMA TRACON (SMA)
10:29AM 38.2753 -90.0108 258° West 147 169 6,400  Level FAA TRACON SMA TRACON (SMA)
10:29AM 38.2694 -90.0467 259° West 149 171 6,400 60 Level FAA TRACON SMA TRACON (SMA)
10:30AM 38.2650 -90.0769 259° West 146 168 6,500 60 Climbing FAA TRACON SMA TRACON (SMA)
10:30AM 38.2594 -90.1125 259° West 146 168 6,500 -120 Level FAA TRACON SMA TRACON (SMA)
10:31AM 38.2542 -90.1483 259° West 148 170 6,400  Descending FAA TRACON SMA TRACON (SMA)
10:32AM 38.2494 -90.1786 259° West 147 169 6,500  Climbing FAA TRACON SMA TRACON (SMA)
10:32AM 38.2439 -90.2150 259° West 149 171 6,400 -120 Descending FAA TRACON SMA TRACON (SMA)
10:33AM 38.2383 -90.2503 259° West 146 168 6,400  Level FAA TRACON SMA TRACON (SMA)
10:34AM 38.2336 -90.2814 259° West 146 168 6,400 60 Level FAA TRACON SMA TRACON (SMA)
10:34AM 38.2281 -90.3172 259° West 148 170 6,500  Climbing FAA TRACON SMA TRACON (SMA)
10:35AM 38.2225 -90.3536 259° West 149 171 6,400 -120 Descending FAA TRACON SMA TRACON (SMA)
10:36AM 38.2178 -90.3847 259° West 147 169 6,400  Level FAA TRACON SMA TRACON (SMA)
10:36AM 38.2125 -90.4206 258° West 150 173 6,400  Level FAA TRACON SMA TRACON (SMA)
10:37AM 38.2069 -90.4544 260° West 148 170 6,400  Level FAA TRACON SMA TRACON (SMA)
10:38AM 38.2022 -90.4875 259° West 150 173 6,400 60 Level FAA TRACON SMA TRACON (SMA)
10:38AM 38.1967 -90.5228 259° West 149 171 6,500 60 Climbing FAA TRACON SMA TRACON (SMA)
10:39AM 38.1911 -90.5586 259° West 149 171 6,500 -120 Level FAA TRACON SMA TRACON (SMA)
10:40AM 38.1864 -90.5906 258° West 148 170 6,400 -120 Descending FAA TRACON SMA TRACON (SMA)
10:40AM 38.1808 -90.6242 260° West 145 167 6,400 60 Level FAA TRACON SMA TRACON (SMA)
10:41AM 38.1758 -90.6606 259° West 148 170 6,500 60 Climbing FAA TRACON SMA TRACON (SMA)
10:42AM 38.1711 -90.6917 258° West 147 169 6,500  Level FAA TRACON SMA TRACON (SMA)
10:42AM 38.1656 -90.7261 260° West 147 169 6,500  Level FAA TRACON SMA TRACON (SMA)
10:43AM 38.1606 -90.7619 260° West 148 170 6,500 -120 Level FAA TRACON SMA TRACON (SMA)
10:44AM 38.1564 -90.7928 259° West 144 166 6,400  Descending FAA TRACON SMA TRACON (SMA)
10:44AM 38.1511 -90.8272 260° West 148 170 6,500  Climbing FAA TRACON SMA TRACON (SMA)
10:45AM 38.1461 -90.8636 256° West 148 170 6,400 -120 Descending FAA TRACON SMA TRACON (SMA)
10:46AM 38.1403 -90.8928 260° West 145 167 6,400  Level FAA TRACON SMA TRACON (SMA)
10:46AM 38.1353 -90.9286 258° West 147 169 6,400 60 Level FAA TRACON SMA TRACON (SMA)
10:47AM 38.1297 -90.9628 259° West 145 167 6,500 60 Climbing FAA TRACON SMA TRACON (SMA)
10:48AM 38.1250 -90.9939 259° West 144 166 6,500  Level FAA TRACON SMA TRACON (SMA)
10:49AM 38.1197 -91.0286 258° West 143 165 6,500 -120 Level FAA TRACON SMA TRACON (SMA)
10:49AM 38.1142 -91.0631 261° West 144 166 6,400  Descending FAA TRACON SMA TRACON (SMA)
10:50AM 38.1103 -91.0950 259° West 147 169 6,500 60 Climbing FAA TRACON SMA TRACON (SMA)
10:51AM 38.1056 -91.1264 256° West 146 168 6,500  Level FAA TRACON SMA TRACON (SMA)
10:51AM 38.0992 -91.1592 264° West 143 165 6,500 -120 Level FAA TRACON SMA TRACON (SMA)
10:52AM 38.0958 -91.1967 253° West 149 171 6,400 -120 Descending FAA TRACON SMA TRACON (SMA)
10:53AM 38.0881 -91.2283 260° West 146 168 6,400 60 Level FAA TRACON SMA TRACON (SMA)
10:53AM 38.0831 -91.2633 257° West 146 168 6,500 60 Climbing FAA TRACON SMA TRACON (SMA)
10:54AM 38.0783 -91.2900 263° West 142 163 6,500  Level FAA TRACON SMA TRACON (SMA)
10:55AM 38.0669 -91.4122 261° West 146 168 6,500  Level Kansas City Center
10:56AM 38.0600 -91.4653 256° West 146 168 6,600  Climbing Kansas City Center
10:57AM 38.0508 -91.5131 260° West 146 168 6,600  Level Kansas City Center
10:58AM 38.0436 -91.5633 256° West 146 168 6,600 -60 Level Kansas City Center
10:59AM 38.0344 -91.6111 258° West 146 168 6,500  Descending Kansas City Center
11:00AM 38.0253 -91.6642 256° West 146 168 6,600  Climbing Kansas City Center
11:01AM 38.0158 -91.7119 260° West 146 168 6,600 -60 Level Kansas City Center
11:02AM 38.0089 -91.7625 257° West 146 168 6,500  Descending Kansas City Center
11:03AM 37.9994 -91.8128 257° West 146 168 6,600  Climbing Kansas City Center
11:04AM 37.9903 -91.8633 260° West 146 168 6,600  Level Kansas City Center
11:05AM 37.9831 -91.9136 255° West 146 168 6,600 -60 Level Kansas City Center
11:06AM 37.9717 -91.9667 260° West 146 168 6,500 -60 Descending Kansas City Center
11:07AM 37.9644 -92.0169 257° West 146 168 6,500  Level Kansas City Center
11:08AM 37.9550 -92.0672 256° West 146 168 6,500  Level Kansas City Center
11:09AM 37.9456 -92.1150 259° West 146 168 6,600  Climbing Kansas City Center
11:10AM 37.9381 -92.1653 257° West 146 168 6,600  Level Kansas City Center
11:11AM 37.9286 -92.2156 257° West 146 168 6,600 -60 Level Kansas City Center
11:12AM 37.9192 -92.2658 256° West 146 168 6,500 -60 Descending Kansas City Center
11:13AM 37.9097 -92.3136 256° West 146 168 6,500  Level Kansas City Center
11:14AM 37.9000 -92.3639 260° West 146 168 6,600  Climbing Kansas City Center
11:15AM 37.8947 -92.4033 257° West 146 168 6,600  Level Kansas City Center
11:16AM 37.8850 -92.4564 257° West 146 168 6,600  Level Kansas City Center
11:17AM 37.8756 -92.5067 256° West 146 168 6,600  Level Kansas City Center
11:18AM 37.8658 -92.5569 259° West 146 168 6,600 -60 Level Kansas City Center
11:19AM 37.8583 -92.6044 256° West 146 168 6,500 -60 Descending Kansas City Center
11:20AM 37.8486 -92.6544 257° West 146 168 6,500  Level Kansas City Center
11:21AM 37.8392 -92.7047 259° West 146 168 6,600  Climbing Kansas City Center
11:22AM 37.8314 -92.7550 255° West 146 168 6,600  Level Kansas City Center
11:23AM 37.8217 -92.8025 256° West 146 168 6,600  Level Kansas City Center
11:24AM 37.8119 -92.8528 256° West 146 168 6,600  Level Kansas City Center
11:25AM 37.8022 -92.9028 259° West 146 168 6,600  Level Kansas City Center
11:26AM 37.7944 -92.9528 256° West 146 168 6,600  Level Kansas City Center
11:27AM 37.7847 -93.0031 256° West 146 168 6,600 -60 Level Kansas City Center
11:28AM 37.7750 -93.0531 258° West 146 168 6,500  Descending Kansas City Center
11:29AM 37.7672 -93.1006 257° West 146 168 6,600  Climbing Kansas City Center
11:30AM 37.7575 -93.1533 260° West 146 168 6,600 -60 Level Kansas City Center
11:44AM 37.6569 -93.8425 247° West 148 170 6,500 -60 Descending Kansas City Center
11:49AM 37.5786 -94.0764 259° West 155 178 6,500  Level Kansas City Center
11:50AM 37.5706 -94.1286 258° West 155 178 6,600  Climbing Kansas City Center
11:51AM 37.5622 -94.1786 253° West 150 173 6,600  Level Kansas City Center
11:52AM 37.5500 -94.2283 258° West 150 173 6,600  Level Kansas City Center
11:53AM 37.5417 -94.2781 255° West 150 173 6,600  Level Kansas City Center
11:54AM 37.5314 -94.3281 259° West 145 167 6,600  Level Kansas City Center
11:55AM 37.5231 -94.3803 250° West 150 173 6,600  Level Kansas City Center
11:56AM 37.5106 -94.4247 255° West 145 167 6,600  Level Kansas City Center
11:57AM 37.5003 -94.4747 257° West 145 167 6,600  Level Kansas City Center
11:58AM 37.4919 -94.5217 256° West 145 167 6,600 -60 Level Kansas City Center
11:59AM 37.4814 -94.5742 254° West 145 167 6,500 -60 Descending Kansas City Center
12:00PM 37.4708 -94.6211 255° West 145 167 6,500  Level Kansas City Center
12:01PM 37.4606 -94.6683 249° West 145 167 6,600  Climbing Kansas City Center
12:02PM 37.4458 -94.7178 250° West 150 173 6,600  Level Kansas City Center
12:03PM 37.4331 -94.7622 249° West 150 173 6,600  Level Kansas City Center
12:04PM 37.4183 -94.8094 251° West 150 173 6,600  Level Kansas City Center
12:05PM 37.4058 -94.8564 251° West 150 173 6,600  Level Kansas City Center
12:06PM 37.3931 -94.9033 248° West 145 167 6,600  Level Kansas City Center
12:07PM 37.3783 -94.9503 248° West 145 167 6,600  Level Kansas City Center
12:08PM 37.3636 -94.9972 251° West 145 167 6,600  Level Kansas City Center
12:09PM 37.3508 -95.0442 247° West 150 173 6,600  Level Kansas City Center
12:10PM 37.3361 -95.0886 251° West 150 173 6,600  Level Kansas City Center
12:11PM 37.3233 -95.1356 250° West 150 173 6,600  Level Kansas City Center
12:12PM 37.3106 -95.1797 251° West 145 167 6,600  Level Kansas City Center
12:13PM 37.2978 -95.2267 250° West 145 167 6,600  Level Kansas City Center
12:14PM 37.2850 -95.2708 247° West 145 167 6,600  Level Kansas City Center
12:15PM 37.2700 -95.3150 251° West 145 167 6,600  Level Kansas City Center
12:16PM 37.2572 -95.3619 249° West 140 161 6,600  Level Kansas City Center
12:17PM 37.2444 -95.4036 248° West 140 161 6,600  Level Kansas City Center
12:18PM 37.2294 -95.4503 253° West 140 161 6,600  Level Kansas City Center
12:19PM 37.2186 -95.4944 250° West 140 161 6,600  Level Kansas City Center
12:20PM 37.2058 -95.5386 248° West 145 167 6,600 -60 Level Kansas City Center
12:21PM 37.1908 -95.5853 250° West 145 167 6,500 -60 Descending Kansas City Center
12:22PM 37.1778 -95.6294 251° West 145 167 6,500  Level Kansas City Center
12:23PM 37.1650 -95.6764 246° West 145 167 6,500  Level Kansas City Center
12:24PM 37.1497 -95.7203 250° West 145 167 6,500  Level Kansas City Center
12:25PM 37.1369 -95.7644 250° West 145 167 6,500  Level Kansas City Center
12:26PM 37.1239 -95.8086 250° West 145 167 6,500  Level Kansas City Center
12:27PM 37.1108 -95.8525 250° West 145 167 6,500  Level Kansas City Center
12:28PM 37.0978 -95.8967 249° West 145 167 6,500  Level Kansas City Center
12:29PM 37.0869 -95.9328 248° West 145 167 6,500  Level Kansas City Center
12:30PM 37.0719 -95.9794 250° West 140 161 6,500  Level Kansas City Center
12:31PM 37.0586 -96.0258 250° West 140 161 6,500  Level Kansas City Center
12:32PM 37.0456 -96.0700 247° West 140 161 6,500  Level Kansas City Center
12:33PM 37.0306 -96.1139 252° West 140 161 6,500  Level Kansas City Center
12:34PM 37.0194 -96.1578 248° West 140 161 6,500  Level Kansas City Center
12:35PM 37.0042 -96.2044 252° West 140 161 6,500  Level Kansas City Center
12:36PM 36.9931 -96.2483 248° West 146 168 6,500  Level Kansas City Center
12:37PM 36.9778 -96.2947 248° West 146 168 6,500  Level Kansas City Center
12:38PM 36.9647 -96.3361 248° West 146 168 6,500  Level Kansas City Center
12:39PM 36.9494 -96.3825 252° West 146 168 6,500 -180 Level Kansas City Center
12:40PM 36.9381 -96.4264 245° Southwest 146 168 6,200 -300 Descending Kansas City Center
12:41PM 36.9186 -96.4778 251° West 151 174 6,000 -300 Descending Kansas City Center
12:42PM 36.9053 -96.5269 250° West 151 174 5,600 -360 Descending Kansas City Center
12:43PM 36.8919 -96.5733 249° West 151 174 5,300 -300 Descending Kansas City Center
12:44PM 36.8764 -96.6247 250° West 151 174 5,000 -300 Descending Kansas City Center
12:45PM 36.8631 -96.6711 249° West 151 174 4,800 -300 Descending Kansas City Center
12:46PM 36.8497 -96.7150 247° West 146 168 4,500 -180 Descending Kansas City Center
12:47PM 36.8342 -96.7611 249° West 146 168 4,500  Level Kansas City Center
12:48PM 36.8208 -96.8050 249° West 146 168 4,500  Level Kansas City Center
12:49PM 36.8075 -96.8486 249° West 146 168 4,500  Level Kansas City Center